Time;durP1;ratioP1;P1;durP2;ratioP2;P2;SDS_P1;SDS_P2;PMS_P1;PMS_P2;Temp;Humidity;BMP_temperature;BMP_pressure;BME280_temperature;BME280_humidity;BME280_pressure;Samples;Min_cycle;Max_cycle;Signal;HPM_P1;HPM_P2
2022/05/31 00:00:19;;;;;;;7.07;6.35;;;;;;;22.08;99.30;99280.53;5089942;28;20242;-60
2022/05/31 00:02:46;;;;;;;8.27;5.93;;;;;;;22.06;99.41;99280.66;5089925;28;20199;-60
2022/05/31 00:05:14;;;;;;;12.07;6.30;;;;;;;21.97;100.00;99272.59;5089883;28;20290;-60
2022/05/31 00:07:43;;;;;;;6.57;5.85;;;;;;;22.09;98.75;99269.00;5089770;28;20609;-60
2022/05/31 00:10:13;;;;;;;7.90;6.63;;;;;;;21.97;100.00;99278.72;5089897;28;20206;-60
2022/05/31 00:12:41;;;;;;;9.00;6.68;;;;;;;21.88;100.00;99284.75;5089557;28;20643;-60
2022/05/31 00:15:10;;;;;;;6.53;5.78;;;;;;;21.82;100.00;99287.00;5089655;28;20199;-59
2022/05/31 00:17:37;;;;;;;9.27;6.28;;;;;;;21.83;100.00;99280.78;5089788;28;20198;-59
2022/05/31 00:20:05;;;;;;;7.13;6.53;;;;;;;21.90;100.00;99280.16;5089774;28;20204;-59
2022/05/31 00:22:35;;;;;;;8.85;6.35;;;;;;;21.85;100.00;99281.50;5089809;28;20584;-59
2022/05/31 00:25:04;;;;;;;6.90;6.25;;;;;;;21.77;100.00;99282.09;5089768;28;20200;-57
2022/05/31 00:27:31;;;;;;;7.35;5.90;;;;;;;;;;5089882;28;20607;-58
2022/05/31 00:29:58;;;;;;;7.40;5.90;;;;;;;21.58;100.00;99298.53;5093342;28;20195;-58
2022/05/31 00:32:28;;;;;;;6.88;6.38;;;;;;;21.47;100.00;99293.22;5093331;28;20199;-59
2022/05/31 00:34:57;;;;;;;7.65;6.85;;;;;;;21.33;100.00;99294.28;5093361;28;20674;-59
2022/05/31 00:37:25;;;;;;;10.70;6.50;;;;;;;21.32;100.00;99292.63;5093104;28;20198;-60
2022/05/31 00:39:51;;;;;;;12.02;6.43;;;;;;;21.35;100.00;99286.25;5093122;28;20644;-59
2022/05/31 00:42:23;;;;;;;8.20;6.70;;;;;;;21.31;100.00;99298.88;5093102;28;20201;-59
2022/05/31 00:44:51;;;;;;;7.30;6.57;;;;;;;21.34;100.00;99292.50;5093167;28;20195;-59
2022/05/31 00:47:24;;;;;;;7.38;6.65;;;;;;;21.39;99.64;99298.28;5092899;28;20246;-59
2022/05/31 00:49:55;;;;;;;10.23;7.10;;;;;;;21.39;98.21;99298.28;5093061;28;20195;-59
2022/05/31 00:52:29;;;;;;;7.18;6.57;;;;;;;21.48;97.38;99302.00;5092762;28;20198;-59
2022/05/31 00:55:03;;;;;;;8.73;7.03;;;;;;;21.43;97.37;99299.72;5093127;28;20580;-60
2022/05/31 00:57:34;;;;;;;11.07;6.85;;;;;;;21.43;96.74;99302.38;5092793;28;20205;-60
2022/05/31 01:00:06;;;;;;;10.00;7.03;;;;;;;21.32;97.92;99302.34;5092840;28;20201;-60
2022/05/31 01:02:32;;;;;;;9.60;6.93;;;;;;;21.19;99.41;99291.88;5092016;28;20252;-59
2022/05/31 01:05:02;;;;;;;11.55;6.53;;;;;;;21.22;99.03;99302.19;5092875;28;20195;-59
2022/05/31 01:07:29;;;;;;;8.15;7.35;;;;;;;21.27;98.16;99296.56;5092464;28;20219;-58
2022/05/31 01:09:56;;;;;;;10.15;6.93;;;;;;;21.24;98.87;99300.28;5092737;28;20191;-59
2022/05/31 01:12:25;;;;;;;7.10;6.50;;;;;;;21.34;98.00;99300.41;5092531;28;20207;-60
2022/05/31 01:14:54;;;;;;;7.53;6.85;;;;;;;21.48;96.50;99297.56;5092596;28;20290;-59
2022/05/31 01:17:23;;;;;;;14.95;6.63;;;;;;;21.47;95.94;99301.16;5092345;28;20203;-58
2022/05/31 01:19:59;;;;;;;9.43;6.32;;;;;;;21.51;95.86;99293.84;5092519;28;20210;-58
2022/05/31 01:22:35;;;;;;;7.65;6.80;;;;;;;21.47;95.32;99292.41;5092188;28;20191;-59
2022/05/31 01:25:11;;;;;;;6.97;6.38;;;;;;;21.51;95.57;99305.25;5091703;28;20230;-59
2022/05/31 01:27:45;;;;;;;7.40;6.70;;;;;;;21.52;95.60;99311.38;5092127;28;20225;-59
2022/05/31 01:30:13;;;;;;;13.18;6.75;;;;;;;21.53;95.31;99303.34;5092446;28;20578;-58
2022/05/31 01:32:46;;;;;;;9.65;6.97;;;;;;;21.43;95.15;99298.88;5092199;28;20192;-58
2022/05/31 01:35:20;;;;;;;7.28;6.57;;;;;;;21.34;95.25;99300.41;5092209;28;20227;-59
2022/05/31 01:37:53;;;;;;;9.60;7.38;;;;;;;21.27;95.76;99307.13;5092014;28;20199;-59
2022/05/31 01:40:26;;;;;;;7.80;7.00;;;;;;;21.29;95.30;99297.28;5091393;28;20211;-59
2022/05/31 01:42:53;;;;;;;8.65;6.97;;;;;;;21.25;95.62;99304.59;5092114;28;20200;-58
2022/05/31 01:45:26;;;;;;;11.00;6.90;;;;;;;21.29;96.67;99306.06;5091758;28;20246;-58
2022/05/31 01:47:56;;;;;;;8.45;7.30;;;;;;;21.31;95.83;99305.94;5091798;28;20230;-60
2022/05/31 01:50:24;;;;;;;12.25;6.97;;;;;;;21.29;96.48;99313.13;5091654;28;20207;-60
2022/05/31 01:52:53;;;;;;;12.20;7.60;;;;;;;21.03;99.50;99308.00;5091722;28;20196;-61
2022/05/31 01:55:21;;;;;;;10.57;7.40;;;;;;;21.01;100.00;99328.38;5091922;28;20194;-61
2022/05/31 01:57:52;;;;;;;8.30;7.13;;;;;;;20.97;100.00;99324.28;5091744;28;20195;-59
2022/05/31 02:00:20;;;;;;;10.75;8.05;;;;;;;20.91;100.00;99335.28;5091690;28;20594;-60
2022/05/31 02:02:51;;;;;;;11.82;7.47;;;;;;;20.80;100.00;99337.88;5090692;28;20196;-60
2022/05/31 02:05:20;;;;;;;7.72;7.13;;;;;;;20.73;100.00;99318.19;5091505;28;20199;-60
2022/05/31 02:07:55;;;;;;;10.95;7.32;;;;;;;20.71;100.00;99321.88;5091330;28;20234;-60
2022/05/31 02:10:23;;;;;;;9.75;7.45;;;;;;;20.81;100.00;99333.44;5091559;28;20272;-60
2022/05/31 02:12:51;;;;;;;15.52;7.80;;;;;;;20.77;100.00;99338.09;5091654;28;20202;-61
2022/05/31 02:15:19;;;;;;;14.13;8.02;;;;;;;20.71;100.00;99351.75;5091350;28;20194;-60
2022/05/31 02:17:47;;;;;;;10.68;8.18;;;;;;;20.45;100.00;99326.41;5091090;28;20203;-59
2022/05/31 02:20:14;;;;;;;9.98;7.43;;;;;;;20.53;100.00;99355.72;5091506;28;20578;-60
2022/05/31 02:22:41;;;;;;;14.48;8.10;;;;;;;20.45;100.00;99358.06;5091215;28;20195;-59
2022/05/31 02:25:10;;;;;;;8.75;7.85;;;;;;;20.49;98.96;99367.44;5091500;28;20195;-59
2022/05/31 02:27:37;;;;;;;11.07;8.00;;;;;;;20.45;98.81;99361.53;5090992;28;20700;-58
2022/05/31 02:30:06;;;;;;;14.10;7.75;;;;;;;20.33;98.08;99348.34;5091184;28;20286;-58
2022/05/31 02:32:33;;;;;;;14.40;7.95;;;;;;;20.48;96.36;99368.38;5090559;28;20656;-58
2022/05/31 02:35:01;;;;;;;11.50;7.28;;;;;;;20.49;94.74;99376.19;5091192;28;20571;-60
2022/05/31 02:37:28;;;;;;;8.98;7.55;;;;;;;20.46;94.29;99373.75;5090849;28;20199;-60
2022/05/31 02:39:55;;;;;;;8.85;7.05;;;;;;;20.45;92.95;99373.88;5089809;28;20200;-59
2022/05/31 02:42:23;;;;;;;10.02;7.30;;;;;;;20.42;93.27;99376.75;5089475;28;20197;-59
2022/05/31 02:44:51;;;;;;;8.98;7.40;;;;;;;20.37;93.46;99371.78;5089471;28;20192;-60
2022/05/31 02:47:19;;;;;;;10.77;6.65;;;;;;;20.44;94.09;99380.09;5089282;28;20215;-59
2022/05/31 02:49:47;;;;;;;11.43;7.65;;;;;;;20.40;94.11;99381.28;5089276;28;20279;-60
2022/05/31 02:52:14;;;;;;;9.30;7.75;;;;;;;20.26;96.73;99388.34;5088034;28;20199;-61
2022/05/31 02:54:42;;;;;;;11.75;8.40;;;;;;;20.14;99.16;99375.19;5090448;28;20286;-60
2022/05/31 02:57:09;;;;;;;13.93;8.18;;;;;;;20.03;100.00;99373.28;5090577;28;20282;-61
2022/05/31 02:59:37;;;;;;;10.00;7.88;;;;;;;20.05;100.00;99387.22;5090102;28;20203;-59
2022/05/31 03:02:04;;;;;;;8.95;8.07;;;;;;;20.04;100.00;99382.88;5089692;28;20372;-60
2022/05/31 03:04:31;;;;;;;12.65;8.38;;;;;;;20.06;100.00;99374.88;5090575;28;20286;-60
2022/05/31 03:07:01;;;;;;;10.52;8.18;;;;;;;19.81;100.00;99338.88;5090411;28;20198;-61
2022/05/31 03:09:30;;;;;;;8.80;7.97;;;;;;;20.01;100.00;99379.63;5088945;28;20194;-59
2022/05/31 03:12:02;;;;;;;13.73;9.02;;;;;;;20.03;100.00;99389.09;5088598;28;20191;-59
2022/05/31 03:14:34;;;;;;;10.73;8.80;;;;;;;20.02;100.00;99387.41;5089068;28;20664;-59
2022/05/31 03:17:07;;;;;;;15.20;9.45;;;;;;;20.01;100.00;99388.38;5089007;28;20201;-60
2022/05/31 03:19:39;;;;;;;12.88;9.15;;;;;;;19.94;100.00;99373.94;5083790;28;20192;-59
2022/05/31 03:22:10;;;;;;;11.98;9.10;;;;;;;20.11;100.00;99385.94;5088790;28;20235;-59
2022/05/31 03:24:41;;;;;;;10.30;9.38;;;;;;;20.07;100.00;99385.31;5086475;28;20196;-60
2022/05/31 03:27:11;;;;;;;11.32;10.02;;;;;;;20.18;100.00;99387.19;5088776;28;20235;-60
2022/05/31 03:29:43;;;;;;;15.52;9.35;;;;;;;20.27;100.00;99389.19;5089657;28;20194;-61
2022/05/31 03:32:12;;;;;;;10.80;9.25;;;;;;;20.19;100.00;99363.38;5090141;28;20206;-59
2022/05/31 03:34:39;;;;;;;11.38;8.40;;;;;;;20.48;100.00;99403.50;5083001;28;20619;-57
2022/05/31 03:37:06;;;;;;;10.27;9.27;;;;;;;20.54;100.00;99402.25;5083752;28;20207;-57
2022/05/31 03:39:33;;;;;;;11.90;8.68;;;;;;;20.67;100.00;99405.66;5085936;28;20614;-58
2022/05/31 03:42:01;;;;;;;15.25;9.98;;;;;;;20.87;100.00;99409.50;5088658;28;20741;-61
2022/05/31 03:44:28;;;;;;;12.15;8.35;;;;;;;21.03;99.10;99408.25;5084718;28;20282;-58
2022/05/31 03:46:54;;;;;;;10.80;8.95;;;;;;;21.26;97.04;99403.13;5082908;28;20254;-58
2022/05/31 03:49:23;;;;;;;15.93;8.40;;;;;;;21.64;95.03;99406.38;5087228;28;20307;-57
2022/05/31 03:51:50;;;;;;;13.38;9.10;;;;;;;22.46;89.39;99384.06;5087616;28;20278;-55
2022/05/31 03:54:17;;;;;;;12.73;8.95;;;;;;;23.70;81.46;99424.28;5088249;28;20206;-63
2022/05/31 03:56:44;;;;;;;17.00;7.97;;;;;;;24.97;73.62;99417.56;5084994;28;20187;-63
2022/05/31 03:59:11;;;;;;;8.38;7.57;;;;;;;25.93;67.25;99430.84;5088126;28;20690;-68
2022/05/31 04:01:38;;;;;;;8.80;7.78;;;;;;;26.72;62.90;99436.59;5087727;28;20722;-66
2022/05/31 04:04:05;;;;;;;8.40;7.63;;;;;;;27.69;58.47;99436.75;5088801;28;20205;-68
2022/05/31 04:06:35;;;;;;;8.38;7.68;;;;;;;28.48;54.47;99433.91;5089793;28;20199;-67
2022/05/31 04:09:02;;;;;;;14.98;8.02;;;;;;;29.30;51.94;99442.19;5089722;28;20218;-65
2022/05/31 04:11:29;;;;;;;11.95;8.70;;;;;;;29.94;48.90;99441.38;5090048;28;20260;-65
2022/05/31 04:13:56;;;;;;;12.68;8.02;;;;;;;29.98;48.67;99447.25;5091188;28;20207;-65
2022/05/31 04:16:26;;;;;;;9.23;7.40;;;;;;;29.98;48.53;99448.09;5091058;28;20195;-61
2022/05/31 04:18:54;;;;;;;9.05;8.10;;;;;;;30.54;46.79;99451.66;5091406;28;20191;-62
2022/05/31 04:21:21;;;;;;;9.00;7.80;;;;;;;30.91;45.63;99450.97;5092060;28;20187;-62
2022/05/31 04:24:01;;;;;;;10.38;7.70;;;;;;;31.59;43.53;99464.47;5092216;28;20196;-66
2022/05/31 04:26:30;;;;;;;8.10;7.50;;;;;;;31.91;42.00;99449.13;5089731;28;20278;-62
2022/05/31 04:28:58;;;;;;;8.70;7.82;;;;;;;32.09;41.76;99450.44;5091985;28;20223;-66
2022/05/31 04:31:25;;;;;;;8.55;7.65;;;;;;;32.16;41.84;99474.72;5089071;28;20199;-63
2022/05/31 04:33:52;;;;;;;8.60;7.75;;;;;;;32.27;41.59;99470.78;5090836;28;20195;-63
2022/05/31 04:36:20;;;;;;;11.13;7.88;;;;;;;32.95;39.87;99466.94;5090102;28;20615;-62
2022/05/31 04:38:49;;;;;;;10.80;8.23;;;;;;;34.11;37.56;99472.84;5091323;28;20187;-63
2022/05/31 04:41:18;;;;;;;9.77;8.85;;;;;;;33.96;37.29;99468.59;5089907;28;20191;-65
2022/05/31 04:43:45;;;;;;;10.82;7.93;;;;;;;33.93;37.67;99464.44;5087991;28;20199;-63
2022/05/31 04:46:14;;;;;;;9.48;7.43;;;;;;;33.72;38.74;99465.28;5089446;28;20225;-65
2022/05/31 04:48:41;;;;;;;8.77;8.05;;;;;;;34.31;37.06;99478.44;5090040;28;20215;-62
2022/05/31 04:51:08;;;;;;;7.90;7.13;;;;;;;34.29;37.42;99469.69;5090240;28;20673;-63
2022/05/31 04:53:34;;;;;;;7.57;6.93;;;;;;;34.11;37.94;99474.72;5090115;28;20205;-63
2022/05/31 04:56:05;;;;;;;10.07;6.60;;;;;;;34.37;37.14;99474.94;5090214;28;20226;-63
2022/05/31 04:58:32;;;;;;;11.50;7.70;;;;;;;34.46;37.08;99456.72;5088483;28;20187;-63
2022/05/31 05:01:01;;;;;;;8.25;7.47;;;;;;;34.93;36.49;99478.34;5089806;28;20211;-66
2022/05/31 05:03:29;;;;;;;8.60;7.75;;;;;;;35.29;35.54;99480.75;5088207;28;20199;-66
2022/05/31 05:06:00;;;;;;;8.57;7.10;;;;;;;35.71;34.67;99473.34;5090000;28;20199;-63
2022/05/31 05:08:26;;;;;;;8.05;6.15;;;;;;;35.11;35.36;99476.94;5088084;28;20218;-65
2022/05/31 05:10:53;;;;;;;8.25;7.45;;;;;;;34.73;36.31;99480.09;5089779;28;20206;-65
2022/05/31 05:13:22;;;;;;;9.25;7.30;;;;;;;34.85;35.63;99467.72;5089316;28;20225;-65
2022/05/31 05:15:51;;;;;;;7.57;6.40;;;;;;;35.13;35.62;99470.31;5090258;28;20199;-62
2022/05/31 05:18:18;;;;;;;11.10;6.70;;;;;;;35.57;35.14;99471.66;5090514;28;20191;-61
2022/05/31 05:20:45;;;;;;;6.93;5.97;;;;;;;36.40;33.76;99478.31;5091833;28;20203;-59
2022/05/31 05:23:12;;;;;;;7.78;6.82;;;;;;;36.67;32.47;99470.97;5092383;28;20206;-60
2022/05/31 05:25:39;;;;;;;8.23;6.07;;;;;;;36.94;32.13;99479.81;5092428;28;20682;-61
2022/05/31 05:30:49;;;;;;;8.52;5.68;;;;;;;37.19;31.65;99478.06;5091848;28;20285;-61
2022/05/31 05:33:16;;;;;;;7.15;6.55;;;;;;;37.51;31.81;99488.88;5091730;28;20275;-61
2022/05/31 05:35:43;;;;;;;10.25;6.00;;;;;;;36.55;32.66;99481.63;5091928;28;20203;-61
2022/05/31 05:38:10;;;;;;;8.45;6.05;;;;;;;35.78;34.17;99476.09;5091928;28;20222;-61
2022/05/31 05:40:37;;;;;;;7.88;6.35;;;;;;;35.70;34.23;99474.38;5091189;28;20230;-61
2022/05/31 05:43:07;;;;;;;9.02;8.23;;;;;;;35.58;33.93;99474.16;5090967;28;20199;-61
2022/05/31 05:45:34;;;;;;;7.53;6.88;;;;;;;35.64;34.00;99469.81;5091738;28;20230;-61
2022/05/31 05:48:04;;;;;;;8.00;6.53;;;;;;;35.77;34.05;99467.16;5091535;28;20318;-62
2022/05/31 05:50:31;;;;;;;9.75;6.50;;;;;;;35.98;33.67;99485.00;5091235;28;20213;-62
2022/05/31 05:53:01;;;;;;;8.05;6.00;;;;;;;36.76;32.57;99475.13;5091778;28;20199;-62
2022/05/31 05:55:28;;;;;;;9.63;7.47;;;;;;;36.11;33.14;99485.00;5090587;28;20199;-62
2022/05/31 05:57:55;;;;;;;8.25;5.80;;;;;;;35.75;33.38;99477.31;5091002;28;20195;-62
2022/05/31 06:00:22;;;;;;;12.95;11.73;;;;;;;35.45;34.25;99468.72;5091785;28;20206;-62
2022/05/31 06:02:56;;;;;;;13.25;6.78;;;;;;;35.42;34.53;99465.63;5091132;28;20195;-63
2022/05/31 06:05:28;;;;;;;8.23;5.85;;;;;;;35.67;34.12;99458.56;5090546;28;20201;-62
2022/05/31 06:07:59;;;;;;;10.40;7.80;;;;;;;36.30;33.60;99480.63;5091302;28;20286;-61
2022/05/31 06:10:30;;;;;;;9.68;5.93;;;;;;;36.37;33.06;99486.84;5091397;28;20191;-60
2022/05/31 06:13:03;;;;;;;7.50;6.57;;;;;;;36.26;33.54;99482.06;5091404;28;20191;-61
2022/05/31 06:15:35;;;;;;;8.25;6.13;;;;;;;35.47;34.73;99474.75;5091015;28;20199;-59
2022/05/31 06:18:13;;;;;;;10.70;6.75;;;;;;;35.30;35.11;99455.44;5091568;28;20713;-60
2022/05/31 06:20:46;;;;;;;14.88;9.07;;;;;;;35.09;35.49;99469.06;5090533;28;20215;-58
2022/05/31 06:23:13;;;;;;;8.77;7.03;;;;;;;35.45;35.05;99468.72;5088505;28;20217;-58
2022/05/31 06:25:40;;;;;;;10.98;6.95;;;;;;;35.00;35.21;99459.47;5091270;28;20195;-59
2022/05/31 06:28:09;;;;;;;8.23;6.72;;;;;;;34.41;36.29;99464.59;5091101;28;20204;-58
2022/05/31 06:30:36;;;;;;;12.05;7.35;;;;;;;34.27;37.11;99470.91;5091084;28;20582;-59
2022/05/31 06:33:03;;;;;;;16.00;10.40;;;;;;;34.20;37.49;99466.28;5090938;28;20196;-60
2022/05/31 06:35:30;;;;;;;9.27;6.65;;;;;;;34.33;37.35;99459.34;5090893;28;20672;-61
2022/05/31 06:37:59;;;;;;;11.50;6.13;;;;;;;34.26;36.84;99456.63;5090574;28;20639;-60
2022/05/31 06:40:26;;;;;;;7.57;6.78;;;;;;;33.62;37.73;99458.56;5090750;28;20195;-60
2022/05/31 06:42:52;;;;;;;11.15;6.28;;;;;;;32.91;39.56;99460.28;5090898;28;20584;-60
2022/05/31 06:45:19;;;;;;;6.93;6.43;;;;;;;32.88;39.61;99464.16;5090944;28;20615;-61
2022/05/31 06:47:46;;;;;;;8.57;6.70;;;;;;;32.73;41.12;99455.31;5090802;28;20199;-61
2022/05/31 06:50:13;;;;;;;7.43;6.75;;;;;;;32.55;41.17;99457.50;5090205;28;20314;-61
2022/05/31 06:58:10;;;;;;;7.82;6.63;;;;;;;32.65;41.31;99442.75;5089888;28;20202;-62
2022/05/31 07:00:37;;;;;;;7.20;6.60;;;;;;;32.92;40.98;99452.03;5089337;28;20205;-62
2022/05/31 07:03:05;;;;;;;7.18;5.97;;;;;;;32.57;41.29;99447.41;5089568;28;20199;-62
2022/05/31 07:05:32;;;;;;;6.68;6.03;;;;;;;32.30;41.73;99443.53;5089427;28;20667;-62
2022/05/31 07:07:59;;;;;;;7.32;6.50;;;;;;;32.18;41.83;99439.63;5089902;28;20203;-62
2022/05/31 07:10:27;;;;;;;6.95;6.10;;;;;;;32.53;41.28;99438.88;5090581;28;20231;-62
2022/05/31 07:12:54;;;;;;;6.45;5.65;;;;;;;33.00;41.43;99440.31;5090343;28;20199;-61
2022/05/31 07:15:21;;;;;;;11.73;5.80;;;;;;;32.87;40.58;99440.97;5090465;28;20195;-61
2022/05/31 07:17:48;;;;;;;7.43;6.40;;;;;;;33.05;41.06;99443.28;5090143;28;20203;-61
2022/05/31 07:20:15;;;;;;;7.40;6.00;;;;;;;33.14;40.50;99436.75;5090243;28;20201;-60
2022/05/31 07:22:42;;;;;;;10.73;6.72;;;;;;;33.44;39.66;99446.38;5090001;28;20287;-61
2022/05/31 07:25:10;;;;;;;10.43;6.55;;;;;;;33.46;39.56;99436.25;5090196;28;20206;-62
2022/05/31 07:27:39;;;;;;;11.25;6.55;;;;;;;33.43;39.41;99430.44;5090048;28;20199;-61
2022/05/31 07:30:07;;;;;;;8.40;7.28;;;;;;;33.37;39.71;99431.22;5090120;28;20233;-60
2022/05/31 07:32:35;;;;;;;7.65;6.95;;;;;;;33.50;39.18;99425.94;5089674;28;20290;-61
2022/05/31 07:35:02;;;;;;;8.90;6.97;;;;;;;33.52;38.99;99440.84;5090013;28;20201;-60
2022/05/31 07:37:29;;;;;;;8.98;6.45;;;;;;;33.38;39.87;99411.34;5093527;28;20199;-60
2022/05/31 07:39:56;;;;;;;7.57;6.38;;;;;;;33.28;40.47;99430.50;5096900;28;20191;-60
2022/05/31 07:42:22;;;;;;;8.82;7.10;;;;;;;33.72;39.72;99430.28;5096624;28;20183;-59
2022/05/31 07:44:54;;;;;;;9.20;7.00;;;;;;;34.20;38.55;99412.38;5096810;28;20693;-61
2022/05/31 07:47:21;;;;;;;9.75;6.82;;;;;;;34.77;37.42;99430.13;5096443;28;20195;-60
2022/05/31 07:49:47;;;;;;;9.70;6.90;;;;;;;34.65;37.47;99437.13;5096121;28;20206;-61
2022/05/31 07:52:15;;;;;;;6.78;6.18;;;;;;;34.75;36.91;99436.75;5096838;28;20294;-62
2022/05/31 07:54:42;;;;;;;6.75;6.10;;;;;;;34.94;36.63;99433.31;5096691;28;20199;-60
2022/05/31 07:58:30;;;;;;;14.30;8.02;;;;;;;35.50;36.15;99433.03;5096540;28;20201;-60
2022/05/31 07:59:57;;;;;;;9.75;6.25;;;;;;;35.65;34.87;99417.47;5096671;28;20228;-60
2022/05/31 08:02:24;;;;;;;8.95;6.18;;;;;;;36.22;34.27;99430.34;5096829;28;20187;-60
2022/05/31 08:04:51;;;;;;;7.68;6.63;;;;;;;36.49;33.75;99431.06;5096006;28;20195;-60
2022/05/31 08:07:18;;;;;;;16.40;7.53;;;;;;;37.11;34.07;99424.16;5096078;28;20592;-61
2022/05/31 08:09:45;;;;;;;11.50;7.40;;;;;;;37.08;33.35;99424.56;5095960;28;20214;-60
2022/05/31 08:12:13;;;;;;;10.98;7.10;;;;;;;36.99;32.96;99420.47;5095803;28;20191;-60
2022/05/31 08:14:40;;;;;;;13.02;7.07;;;;;;;36.89;32.80;99422.81;5095787;28;20285;-60
2022/05/31 08:17:09;;;;;;;9.90;6.30;;;;;;;36.62;33.35;99422.06;5095972;28;20193;-59
2022/05/31 08:19:38;;;;;;;7.32;6.15;;;;;;;36.55;33.45;99407.78;5095877;28;20221;-60
2022/05/31 08:22:05;;;;;;;15.05;6.63;;;;;;;36.84;33.08;99415.34;5096111;28;20194;-59
2022/05/31 08:24:32;;;;;;;12.65;7.00;;;;;;;36.53;33.87;99412.56;5095723;28;20190;-60
2022/05/31 08:27:00;;;;;;;8.93;6.60;;;;;;;36.41;33.79;99417.78;5093272;28;20198;-60
2022/05/31 08:29:28;;;;;;;8.10;5.82;;;;;;;36.17;33.98;99422.00;5094560;28;20214;-60
2022/05/31 08:31:57;;;;;;;10.10;6.57;;;;;;;36.07;33.70;99412.66;5094578;28;20283;-60
2022/05/31 08:34:26;;;;;;;7.70;6.90;;;;;;;35.33;35.04;99408.28;5095022;28;20191;-61
2022/05/31 08:36:53;;;;;;;13.10;10.98;;;;;;;34.69;36.18;99407.88;5093585;28;20277;-61
2022/05/31 08:39:20;;;;;;;11.73;6.47;;;;;;;34.73;36.38;99403.75;5094797;28;20192;-61
2022/05/31 08:41:49;;;;;;;12.23;6.80;;;;;;;34.67;36.25;99394.59;5094938;28;20620;-61
2022/05/31 08:44:34;;;;;;;7.55;6.85;;;;;;;34.36;37.00;99395.09;5094768;28;20197;-61
2022/05/31 08:47:03;;;;;;;8.40;7.40;;;;;;;33.92;37.55;99390.06;5094171;28;20672;-61
2022/05/31 08:52:53;;;;;;;12.13;7.22;;;;;;;33.95;37.25;99386.97;5089509;28;20648;-61
2022/05/31 08:58:16;;;;;;;14.05;9.27;;;;;;;33.49;38.35;99386.59;5091553;28;20203;-61
2022/05/31 09:00:48;;;;;;;8.55;7.10;;;;;;;32.84;40.33;99387.63;5091077;28;20198;-61
2022/05/31 09:03:19;;;;;;;9.27;8.02;;;;;;;33.04;40.24;99388.66;5089759;28;20203;-61
2022/05/31 09:05:54;;;;;;;13.38;7.90;;;;;;;33.42;39.58;99380.31;5088914;28;20254;-61
2022/05/31 09:08:25;;;;;;;7.80;7.05;;;;;;;33.75;38.68;99381.44;5091335;28;20687;-61
2022/05/31 09:11:02;;;;;;;10.07;7.15;;;;;;;33.87;38.67;99379.88;5091656;28;20219;-60
2022/05/31 09:13:39;;;;;;;8.13;7.25;;;;;;;33.45;38.91;99382.63;5091213;28;20203;-60
2022/05/31 09:16:12;;;;;;;11.70;6.82;;;;;;;33.42;39.29;99369.56;5091043;28;20203;-61
2022/05/31 09:18:46;;;;;;;10.40;7.60;;;;;;;33.60;39.41;99377.16;5090608;28;20187;-61
2022/05/31 09:21:25;;;;;;;10.23;7.40;;;;;;;33.58;38.92;99368.44;5091087;28;20187;-61
2022/05/31 09:23:52;;;;;;;11.32;7.22;;;;;;;33.58;38.40;99374.66;5088760;28;20195;-61
2022/05/31 09:26:44;;;;;;;10.63;8.02;;;;;;;33.93;38.85;99374.72;5090830;28;20201;-62
2022/05/31 09:29:17;;;;;;;17.27;7.65;;;;;;;34.43;36.96;99371.69;5090798;28;20227;-61
2022/05/31 09:32:00;;;;;;;8.23;6.60;;;;;;;34.28;37.17;99378.28;5091042;28;20192;-60
2022/05/31 09:34:44;;;;;;;9.82;6.63;;;;;;;34.24;37.07;99375.13;5088361;28;20199;-61
2022/05/31 09:37:25;;;;;;;12.90;6.63;;;;;;;34.18;36.52;99373.22;5082997;28;20225;-60
2022/05/31 09:40:10;;;;;;;9.82;7.30;;;;;;;34.13;36.75;99381.91;5091205;28;20202;-60
2022/05/31 09:42:41;;;;;;;15.25;7.32;;;;;;;33.99;36.96;99372.06;5075531;28;20274;-61
2022/05/31 09:45:12;;;;;;;12.30;7.07;;;;;;;34.13;37.42;99372.97;5090717;28;20195;-60
2022/05/31 09:47:40;;;;;;;13.98;7.30;;;;;;;34.19;37.14;99362.25;5090832;28;20206;-61
2022/05/31 09:50:08;;;;;;;8.10;6.68;;;;;;;33.92;37.25;99354.22;5090802;28;20268;-60
2022/05/31 09:52:42;;;;;;;10.73;7.55;;;;;;;34.20;36.73;99360.41;5090677;28;20274;-61
2022/05/31 09:58:02;;;;;;;11.48;7.32;;;;;;;34.15;37.01;99355.59;5089196;28;20198;-61
2022/05/31 10:00:29;;;;;;;9.20;6.50;;;;;;;34.19;36.27;99351.47;5090112;28;20195;-60
2022/05/31 10:03:05;;;;;;;8.77;6.90;;;;;;;34.28;36.28;99354.88;5091033;28;20191;-60
2022/05/31 10:05:34;;;;;;;11.82;7.05;;;;;;;34.28;36.73;99354.03;5090864;28;20203;-59
2022/05/31 10:08:02;;;;;;;9.05;6.32;;;;;;;34.15;36.68;99346.69;5090635;28;20281;-61
2022/05/31 10:10:33;;;;;;;8.05;6.07;;;;;;;34.14;36.01;99331.53;5090505;28;20226;-61
2022/05/31 10:13:04;;;;;;;8.30;6.05;;;;;;;33.86;35.31;99339.69;5090462;28;20203;-61
2022/05/31 10:15:37;;;;;;;9.38;6.85;;;;;;;33.66;36.07;99334.13;5090497;28;20202;-61
2022/05/31 10:18:06;;;;;;;6.22;5.57;;;;;;;33.13;36.09;99330.19;5090455;28;20198;-60
2022/05/31 10:20:34;;;;;;;8.55;6.15;;;;;;;32.64;37.38;99305.88;5089979;28;20589;-59
2022/05/31 10:23:06;;;;;;;6.25;5.68;;;;;;;32.73;37.97;99326.28;5089793;28;20686;-59
2022/05/31 10:25:40;;;;;;;6.03;5.50;;;;;;;32.52;38.93;99328.88;5090409;28;20203;-60
2022/05/31 10:28:15;;;;;;;10.10;6.43;;;;;;;32.62;39.31;99318.69;5090408;28;20191;-61
2022/05/31 10:30:42;;;;;;;7.88;6.60;;;;;;;32.66;38.90;99328.03;5089818;28;20221;-61
2022/05/31 10:33:18;;;;;;;8.85;7.22;;;;;;;32.41;39.79;99322.97;5089519;28;20187;-61
2022/05/31 10:35:46;;;;;;;7.85;6.50;;;;;;;32.44;40.58;99330.69;5087474;28;20199;-60
2022/05/31 10:38:27;;;;;;;8.10;6.38;;;;;;;32.62;41.44;99313.31;5090047;28;20196;-60
2022/05/31 10:41:00;;;;;;;7.60;5.82;;;;;;;32.68;39.59;99301.78;5090031;28;20194;-59
2022/05/31 10:43:35;;;;;;;8.43;7.07;;;;;;;32.69;39.52;99320.41;5090150;28;20187;-61
2022/05/31 10:46:10;;;;;;;10.65;7.03;;;;;;;32.63;39.99;99317.63;5089957;28;20235;-59
2022/05/31 10:48:46;;;;;;;9.07;5.70;;;;;;;32.67;38.65;99327.00;5089676;28;20679;-60
2022/05/31 10:51:21;;;;;;;7.90;6.18;;;;;;;32.47;39.98;99313.34;5089569;28;20253;-58
2022/05/31 10:54:01;;;;;;;12.52;5.43;;;;;;;32.50;39.19;99320.22;5090085;28;20203;-62
2022/05/31 10:56:37;;;;;;;9.02;6.32;;;;;;;32.31;41.91;99319.78;5090808;28;20289;-62
2022/05/31 10:59:09;;;;;;;11.43;6.20;;;;;;;32.15;41.20;99314.59;5091190;28;20697;-62
2022/05/31 11:01:49;;;;;;;9.23;6.35;;;;;;;32.04;44.08;99309.69;5090621;28;20187;-61
2022/05/31 11:04:37;;;;;;;7.97;6.55;;;;;;;32.09;40.80;99309.97;5089953;28;20210;-62
2022/05/31 11:07:16;;;;;;;7.70;6.45;;;;;;;32.08;40.74;99301.06;5089908;28;20244;-62
2022/05/31 11:13:00;;;;;;;5.75;5.35;;;;;;;31.73;39.59;99291.91;5089089;28;20195;-63
2022/05/31 11:15:38;;;;;;;9.43;5.72;;;;;;;31.59;39.56;99290.06;5089702;28;20207;-63
2022/05/31 11:18:35;;;;;;;7.90;6.40;;;;;;;31.51;40.98;99263.28;5089878;28;20592;-68
2022/05/31 11:21:09;;;;;;;11.13;5.90;;;;;;;31.53;40.38;99265.78;5086051;28;20199;-65
2022/05/31 11:23:52;;;;;;;10.23;5.38;;;;;;;31.56;39.67;99265.44;5089266;28;20199;-66
2022/05/31 11:26:39;;;;;;;7.65;6.00;;;;;;;31.37;39.14;99250.72;5087641;28;20290;-66
2022/05/31 11:29:27;;;;;;;5.68;5.18;;;;;;;31.19;40.28;99256.41;5089061;28;20671;-66
2022/05/31 11:32:01;;;;;;;8.40;5.90;;;;;;;31.30;39.68;99252.44;5088442;28;20649;-65
2022/05/31 11:34:46;;;;;;;8.60;5.07;;;;;;;31.42;39.13;99240.25;5090472;28;20202;-66
2022/05/31 11:37:32;;;;;;;10.20;5.18;;;;;;;31.56;37.47;99250.16;5088462;28;20526;-66
2022/05/31 11:40:13;;;;;;;8.68;4.90;;;;;;;31.61;37.90;99254.97;5089215;28;20194;-66
2022/05/31 11:43:04;;;;;;;6.85;4.93;;;;;;;31.81;38.15;99261.50;5088820;28;20282;-67
2022/05/31 11:45:37;;;;;;;8.18;5.03;;;;;;;31.96;37.66;99259.59;5088906;28;20234;-66
2022/05/31 11:48:25;;;;;;;5.60;5.10;;;;;;;31.97;37.03;99250.53;5088628;28;20203;-67
2022/05/31 11:51:03;;;;;;;5.32;4.78;;;;;;;32.04;37.74;99243.41;5089291;28;20269;-67
2022/05/31 11:53:54;;;;;;;5.85;5.22;;;;;;;31.86;38.13;99248.31;5088904;28;20198;-67
2022/05/31 11:56:29;;;;;;;10.98;10.00;;;;;;;31.84;38.07;99246.84;5089124;28;20584;-68
2022/05/31 11:59:03;;;;;;;10.77;6.10;;;;;;;31.66;38.89;99221.22;5088799;28;20197;-67
2022/05/31 12:01:36;;;;;;;7.53;5.00;;;;;;;31.68;40.10;99250.56;5068450;28;20196;-67
2022/05/31 12:04:08;;;;;;;9.45;5.07;;;;;;;31.77;40.09;99253.97;5068777;28;20203;-68